Time,TemperatureF,DewpointF,PressureIn,WindDirection,WindDirectionDegrees,WindSpeedMPH,WindSpeedGustMPH,Humidity,HourlyPrecipIn,Conditions,Clouds,dailyrainin,SoftwareType,DateUTC
2013-03-21 00:10:00,18.0,10.0,30.15,NW,321,0.0,6.0,71,0.00,,,0.00,weatherlink.com 1.10,2013-03-21 05:10:00,
2013-03-21 00:25:00,17.8,10.0,30.15,North,354,1.0,4.0,71,0.00,,,0.00,weatherlink.com 1.10,2013-03-21 05:25:00,
2013-03-21 00:40:00,17.2,10.0,30.14,NNW,346,1.0,6.0,73,0.00,,,0.00,weatherlink.com 1.10,2013-03-21 05:40:00,
2013-03-21 00:55:00,16.9,10.0,30.14,NW,319,2.0,6.0,73,0.00,,,0.00,weatherlink.com 1.10,2013-03-21 05:55:00,
2013-03-21 01:10:00,16.5,10.0,30.14,NNW,332,1.0,6.0,74,0.00,,,0.00,weatherlink.com 1.10,2013-03-21 06:10:00,
2013-03-21 01:25:00,16.2,9.0,30.14,WNW,288,1.0,6.0,74,0.00,,,0.00,weatherlink.com 1.10,2013-03-21 06:25:00,
2013-03-21 01:40:00,15.9,9.0,30.14,North,4,1.0,1.0,74,0.00,,,0.00,weatherlink.com 1.10,2013-03-21 06:40:00,
2013-03-21 01:55:00,15.5,9.0,30.14,NNW,330,1.0,1.0,75,0.00,,,0.00,weatherlink.com 1.10,2013-03-21 06:55:00,
2013-03-21 02:10:00,15.0,8.0,30.15,NNW,347,0.0,4.0,75,0.00,,,0.00,weatherlink.com 1.10,2013-03-21 07:10:00,
2013-03-21 02:25:00,14.5,8.0,30.15,NNW,335,0.0,1.0,75,0.00,,,0.00,weatherlink.com 1.10,2013-03-21 07:25:00,
2013-03-21 02:40:00,14.3,8.0,30.14,WNW,295,0.0,1.0,75,0.00,,,0.00,weatherlink.com 1.10,2013-03-21 07:40:00,
2013-03-21 02:55:00,13.8,8.0,30.14,WNW,292,0.0,1.0,76,0.00,,,0.00,weatherlink.com 1.10,2013-03-21 07:55:00,
2013-03-21 03:10:00,13.8,8.0,30.14,NNW,342,0.0,1.0,76,0.00,,,0.00,weatherlink.com 1.10,2013-03-21 08:10:00,
2013-03-21 03:25:00,13.4,7.0,30.14,WNW,296,0.0,4.0,77,0.00,,,0.00,weatherlink.com 1.10,2013-03-21 08:25:00,
2013-03-21 03:40:00,13.3,7.0,30.13,NNW,345,0.0,1.0,77,0.00,,,0.00,weatherlink.com 1.10,2013-03-21 08:40:00,
2013-03-21 03:55:00,13.0,7.0,30.13,North,9,0.0,1.0,77,0.00,,,0.00,weatherlink.com 1.10,2013-03-21 08:55:00,
2013-03-21 04:10:00,12.1,7.0,30.13,North,8,0.0,0.0,79,0.00,,,0.00,weatherlink.com 1.10,2013-03-21 09:10:00,
2013-03-21 04:25:00,11.9,7.0,30.12,North,8,0.0,1.0,80,0.00,,,0.00,weatherlink.com 1.10,2013-03-21 09:25:00,
2013-03-21 04:40:00,11.6,7.0,30.12,NW,322,0.0,1.0,80,0.00,,,0.00,weatherlink.com 1.10,2013-03-21 09:40:00,
2013-03-21 04:55:00,11.4,7.0,30.13,NW,321,0.0,0.0,81,0.00,,,0.00,weatherlink.com 1.10,2013-03-21 09:55:00,
2013-03-21 05:10:00,11.5,7.0,30.13,WNW,293,0.0,1.0,81,0.00,,,0.00,weatherlink.com 1.10,2013-03-21 10:10:00,
2013-03-21 05:25:00,10.9,6.0,30.13,WNW,294,0.0,0.0,82,0.00,,,0.00,weatherlink.com 1.10,2013-03-21 10:25:00,
2013-03-21 05:40:00,10.6,6.0,30.14,WNW,294,0.0,1.0,82,0.00,,,0.00,weatherlink.com 1.10,2013-03-21 10:40:00,
2013-03-21 05:55:00,10.4,6.0,30.14,NW,310,0.0,0.0,82,0.00,,,0.00,weatherlink.com 1.10,2013-03-21 10:55:00,
2013-03-21 06:11:00,9.8,5.0,30.14,NW,311,0.0,0.0,82,0.00,,,0.00,weatherlink.com 1.10,2013-03-21 11:11:00,
2013-03-21 06:26:00,9.6,6.0,30.14,NW,310,0.0,0.0,84,0.00,,,0.00,weatherlink.com 1.10,2013-03-21 11:26:00,
2013-03-21 06:41:00,9.9,6.0,30.14,West,266,0.0,1.0,85,0.00,,,0.00,weatherlink.com 1.10,2013-03-21 11:41:00,
2013-03-21 06:56:00,9.4,6.0,30.14,West,266,0.0,0.0,84,0.00,,,0.00,weatherlink.com 1.10,2013-03-21 11:56:00,
2013-03-21 07:11:00,9.6,6.0,30.14,West,266,0.0,1.0,85,0.00,,,0.00,weatherlink.com 1.10,2013-03-21 12:11:00,
2013-03-21 07:26:00,9.2,6.0,30.15,West,269,0.0,1.0,85,0.00,,,0.00,weatherlink.com 1.10,2013-03-21 12:26:00,
2013-03-21 07:41:00,10.0,7.0,30.15,West,273,0.0,1.0,86,0.00,,,0.00,weatherlink.com 1.10,2013-03-21 12:41:00,
2013-03-21 07:56:00,11.1,8.0,30.16,West,278,1.0,1.0,86,0.00,,,0.00,weatherlink.com 1.10,2013-03-21 12:56:00,
2013-03-21 08:11:00,12.9,9.0,30.16,NW,312,2.0,3.0,84,0.00,,,0.00,weatherlink.com 1.10,2013-03-21 13:11:00,
2013-03-21 08:26:00,14.7,10.0,30.16,WNW,301,1.0,3.0,80,0.00,,,0.00,weatherlink.com 1.10,2013-03-21 13:26:00,
2013-03-21 09:11:00,19.1,11.0,30.16,NW,309,1.0,3.0,70,0.00,,,0.00,weatherlink.com 1.10,2013-03-21 14:11:00,
2013-03-21 09:26:00,20.0,11.0,30.17,NW,304,0.0,3.0,68,0.00,,,0.00,weatherlink.com 1.10,2013-03-21 14:26:00,
2013-03-21 09:41:00,21.6,10.0,30.16,North,353,2.0,2.0,62,0.00,,,0.00,weatherlink.com 1.10,2013-03-21 14:41:00,
2013-03-21 09:56:00,22.5,9.0,30.16,NNE,15,0.0,2.0,57,0.00,,,0.00,weatherlink.com 1.10,2013-03-21 14:56:00,
2013-03-21 10:11:00,22.5,9.0,30.15,SE,143,0.0,4.0,56,0.00,,,0.00,weatherlink.com 1.10,2013-03-21 15:11:00,
2013-03-21 10:26:00,23.0,8.0,30.15,West,262,2.0,7.0,54,0.00,,,0.00,weatherlink.com 1.10,2013-03-21 15:26:00,
2013-03-21 10:41:00,22.5,8.0,30.15,WNW,284,3.0,5.0,54,0.00,,,0.00,weatherlink.com 1.10,2013-03-21 15:41:00,
2013-03-21 11:11:00,24.4,10.0,30.14,South,187,1.0,7.0,55,0.00,,,0.00,weatherlink.com 1.10,2013-03-21 16:11:00,
2013-03-21 11:26:00,25.6,10.0,30.14,South,184,3.0,5.0,52,0.00,,,0.00,weatherlink.com 1.10,2013-03-21 16:26:00,
2013-03-21 11:41:00,26.2,10.0,30.14,SW,218,1.0,4.0,51,0.00,,,0.00,weatherlink.com 1.10,2013-03-21 16:41:00,
2013-03-21 11:56:00,26.5,11.0,30.14,SSE,167,0.0,4.0,52,0.00,,,0.00,weatherlink.com 1.10,2013-03-21 16:56:00,
2013-03-21 12:11:00,27.1,10.0,30.14,SSE,158,0.0,6.0,49,0.00,,,0.00,weatherlink.com 1.10,2013-03-21 17:11:00,
2013-03-21 12:27:00,27.7,11.0,30.13,SW,225,2.0,7.0,49,0.00,,,0.00,weatherlink.com 1.10,2013-03-21 17:27:00,
2013-03-21 12:41:00,28.2,11.0,30.12,WNW,294,2.0,7.0,49,0.00,,,0.00,weatherlink.com 1.10,2013-03-21 17:41:00,
2013-03-21 12:56:00,29.0,11.0,30.12,NNW,329,1.0,7.0,48,0.00,,,0.00,weatherlink.com 1.10,2013-03-21 17:56:00,
2013-03-21 13:11:00,30.4,13.0,30.12,West,269,2.0,5.0,48,0.00,,,0.00,weatherlink.com 1.10,2013-03-21 18:11:00,
2013-03-21 13:27:00,30.5,12.0,30.11,WNW,295,2.0,7.0,47,0.00,,,0.00,weatherlink.com 1.10,2013-03-21 18:27:00,
2013-03-21 13:57:00,31.2,13.0,30.10,NNW,327,0.0,7.0,47,0.00,,,0.00,weatherlink.com 1.10,2013-03-21 18:57:00,
2013-03-21 14:12:00,32.1,12.0,30.10,SSW,211,1.0,5.0,43,0.00,,,0.00,weatherlink.com 1.10,2013-03-21 19:12:00,
2013-03-21 14:27:00,32.9,13.0,30.09,North,356,2.0,9.0,44,0.00,,,0.00,weatherlink.com 1.10,2013-03-21 19:27:00,
2013-03-21 14:42:00,32.9,13.0,30.08,SE,136,2.0,6.0,44,0.00,,,0.00,weatherlink.com 1.10,2013-03-21 19:42:00,
2013-03-21 14:57:00,32.5,12.0,30.08,WNW,302,5.0,6.0,43,0.00,,,0.00,weatherlink.com 1.10,2013-03-21 19:57:00,
2013-03-21 15:12:00,32.6,12.0,30.07,NW,319,2.0,5.0,43,0.00,,,0.00,weatherlink.com 1.10,2013-03-21 20:12:00,
2013-03-21 15:27:00,33.7,13.0,30.07,NNW,332,3.0,5.0,42,0.00,,,0.00,weatherlink.com 1.10,2013-03-21 20:27:00,
2013-03-21 15:42:00,33.3,12.0,30.06,WNW,294,3.0,5.0,42,0.00,,,0.00,weatherlink.com 1.10,2013-03-21 20:42:00,
2013-03-21 15:57:00,34.3,13.0,30.06,NNE,30,2.0,5.0,41,0.00,,,0.00,weatherlink.com 1.10,2013-03-21 20:57:00,
2013-03-21 16:12:00,34.9,13.0,30.06,WNW,284,0.0,8.0,40,0.00,,,0.00,weatherlink.com 1.10,2013-03-21 21:12:00,
2013-03-21 16:27:00,35.3,14.0,30.05,ESE,105,0.0,4.0,41,0.00,,,0.00,weatherlink.com 1.10,2013-03-21 21:27:00,
2013-03-21 16:42:00,35.7,13.0,30.05,ESE,122,0.0,3.0,40,0.00,,,0.00,weatherlink.com 1.10,2013-03-21 21:42:00,
2013-03-21 16:57:00,36.1,13.0,30.05,ESE,108,1.0,4.0,38,0.00,,,0.00,weatherlink.com 1.10,2013-03-21 21:57:00,
2013-03-21 17:12:00,36.4,13.0,30.05,WSW,239,1.0,3.0,39,0.00,,,0.00,weatherlink.com 1.10,2013-03-21 22:12:00,
2013-03-21 17:27:00,36.6,13.0,30.05,NNE,33,1.0,3.0,38,0.00,,,0.00,weatherlink.com 1.10,2013-03-21 22:27:00,
2013-03-21 17:42:00,36.2,13.0,30.05,SW,215,0.0,3.0,39,0.00,,,0.00,weatherlink.com 1.10,2013-03-21 22:42:00,
2013-03-21 17:57:00,36.4,13.0,30.05,SSE,150,2.0,2.0,38,0.00,,,0.00,weatherlink.com 1.10,2013-03-21 22:57:00,
2013-03-21 18:12:00,36.5,14.0,30.05,SSW,200,0.0,2.0,39,0.00,,,0.00,weatherlink.com 1.10,2013-03-21 23:12:00,
2013-03-21 18:27:00,35.6,13.0,30.05,East,89,0.0,1.0,39,0.00,,,0.00,weatherlink.com 1.10,2013-03-21 23:27:00,
2013-03-21 18:42:00,35.7,12.0,30.05,WNW,298,0.0,1.0,38,0.00,,,0.00,weatherlink.com 1.10,2013-03-21 23:42:00,
2013-03-21 18:57:00,33.8,12.0,30.05,WNW,297,0.0,0.0,41,0.00,,,0.00,weatherlink.com 1.10,2013-03-21 23:57:00,
2013-03-21 19:12:00,31.7,12.0,30.05,WNW,298,0.0,0.0,44,0.00,,,0.00,weatherlink.com 1.10,2013-03-22 00:12:00,
2013-03-21 19:27:00,29.8,12.0,30.05,WNW,297,0.0,0.0,47,0.00,,,0.00,weatherlink.com 1.10,2013-03-22 00:27:00,
2013-03-21 19:42:00,27.7,12.0,30.06,WNW,297,0.0,0.0,51,0.00,,,0.00,weatherlink.com 1.10,2013-03-22 00:42:00,
2013-03-21 19:57:00,25.4,10.0,30.06,WNW,297,0.0,0.0,53,0.00,,,0.00,weatherlink.com 1.10,2013-03-22 00:57:00,
2013-03-21 20:12:00,25.1,12.0,30.06,WNW,298,0.0,0.0,57,0.00,,,0.00,weatherlink.com 1.10,2013-03-22 01:12:00,
2013-03-21 20:27:00,24.4,11.0,30.07,WNW,298,0.0,0.0,57,0.00,,,0.00,weatherlink.com 1.10,2013-03-22 01:27:00,
2013-03-21 20:42:00,23.2,12.0,30.07,WNW,298,0.0,0.0,62,0.00,,,0.00,weatherlink.com 1.10,2013-03-22 01:42:00,
2013-03-21 20:57:00,23.1,12.0,30.07,WNW,298,0.0,0.0,62,0.00,,,0.00,weatherlink.com 1.10,2013-03-22 01:57:00,
2013-03-21 21:12:00,23.7,13.0,30.07,North,6,0.0,0.0,63,0.00,,,0.00,weatherlink.com 1.10,2013-03-22 02:12:00,
2013-03-21 21:27:00,22.1,12.0,30.08,North,6,0.0,0.0,64,0.00,,,0.00,weatherlink.com 1.10,2013-03-22 02:27:00,
2013-03-21 21:43:00,21.3,13.0,30.08,North,6,0.0,0.0,69,0.00,,,0.00,weatherlink.com 1.10,2013-03-22 02:43:00,
2013-03-21 21:57:00,23.2,14.0,30.09,North,6,0.0,0.0,69,0.00,,,0.00,weatherlink.com 1.10,2013-03-22 02:57:00,
2013-03-21 22:12:00,24.0,15.0,30.08,NNE,22,0.0,1.0,68,0.00,,,0.00,weatherlink.com 1.10,2013-03-22 03:12:00,
2013-03-21 22:27:00,24.1,15.0,30.08,NNE,22,0.0,0.0,68,0.00,,,0.00,weatherlink.com 1.10,2013-03-22 03:27:00,
2013-03-21 22:42:00,23.7,15.0,30.08,NNE,22,0.0,0.0,70,0.00,,,0.00,weatherlink.com 1.10,2013-03-22 03:42:00,
2013-03-21 22:57:00,22.9,15.0,30.08,NNE,22,0.0,0.0,71,0.00,,,0.00,weatherlink.com 1.10,2013-03-22 03:57:00,
2013-03-21 23:12:00,22.5,15.0,30.08,NNE,22,0.0,0.0,73,0.00,,,0.00,weatherlink.com 1.10,2013-03-22 04:12:00,
2013-03-21 23:27:00,22.4,15.0,30.08,NNE,22,0.0,0.0,73,0.00,,,0.00,weatherlink.com 1.10,2013-03-22 04:27:00,
2013-03-21 23:42:00,22.1,15.0,30.09,NNE,22,0.0,0.0,73,0.00,,,0.00,weatherlink.com 1.10,2013-03-22 04:42:00,
2013-03-21 23:57:00,20.4,13.0,30.09,NNE,22,0.0,0.0,74,0.00,,,0.00,weatherlink.com 1.10,2013-03-22 04:57:00,